Portada
METAR-TAF:

METAR-TAF

Aeroports :

Elista, Rússia

latitud: 46-22N, longitud: 044-20E, altitud: 150 m

Observació

L'informe es va fer fa 29 minuts, a les 04:00 UTC
Vent 14 kt del Sud/Sud-Oest
Temperatura 3°C
Humitat 100%
Pressió 1020 hPa
Visibilitat: 6000 m

METAR: URWI 160400Z AUTO 20007MPS 6000 // ///003/// 03/03 Q1020 RMK QBB090

Hora: 08:29 (04:29 UTC)

Pronòstic

L'informe es va fer fa 2 hores i 29 minuts, a les 02:00 UTC
Pronòstic vàlid del 16 a les 03 UTC al 16 a les 12 UTC
Vent 6 kt del Sud/Sud-Est amb ràfegues de 17 kt
Visibilitat: 0300 m
Cel cobert a una alçada de 100 ft
plugim, boira
Temporalment
l' 16 a les 06 UTC al 16 a les 12 UTC
Visibilitat: 1000 m
xàfecs de pluja, boirina

TAF: URWI 160200Z 1603/1612 15003G09MPS 0300 -DZ FG OVC001 TEMPO 1606/1612 1000 -SHRA BR

Observacions i pronòstics meteorològics de més de 4000 aeroports (METAR i TAF).

Les estacions disponibles són els punts grocs i vermells al mapa.

Posi el ratolí al punt desitjat per veure el nom de l'estació.

Feu clic per veure les observacions i els pronòstics meteorològics.

Per canviar el mapa: feu clic els botons verds amb una creu de color negre per apropar; al botó verd amb un guió per allunyar la imatge; o en les fletxes verdes per a mapes adjacents.


METAR-TAF: